Time;durP1;ratioP1;P1;durP2;ratioP2;P2;SDS_P1;SDS_P2;PMS_P1;PMS_P2;Temp;Humidity;BMP_temperature;BMP_pressure;BME280_temperature;BME280_humidity;BME280_pressure;Samples;Min_cycle;Max_cycle;Signal;HPM_P1;HPM_P2
2022/05/03 00:00:24;;;;;;;;;;;;;;;;;;5096593;28;20416;-69
2022/05/03 00:02:50;;;;;;;;;;;;;;;;;;5077788;28;19908;-68
2022/05/03 00:05:16;;;;;;;;;;;;;;;;;;5095661;28;20276;-69
2022/05/03 00:07:42;;;;;;;;;;;;;;;;;;5096027;28;19908;-69
2022/05/03 00:10:08;;;;;;;;;;;;;;;;;;5095849;28;19915;-68
2022/05/03 00:12:34;;;;;;;;;;;;;;;;;;5095384;28;19908;-68
2022/05/03 00:15:00;;;;;;;;;;;;;;;;;;5095602;28;19920;-69
2022/05/03 00:17:26;;;;;;;;;;;;;;;;;;5095811;28;20396;-68
2022/05/03 00:19:55;;;;;;;;;;;;;;;;;;5095336;28;19915;-68
2022/05/03 00:22:21;;;;;;;;;;;;;;;;;;5096005;28;19987;-68
2022/05/03 00:24:48;;;;;;;;;;;;;;;;;;5096054;28;19909;-68
2022/05/03 00:27:14;;;;;;;;;;;;;;;;;;5095096;28;19914;-68
2022/05/03 00:29:40;;;;;;;;;;;;;;;;;;5095539;28;19991;-68
2022/05/03 00:32:06;;;;;;;;;;;;;;;;;;5095598;28;19908;-68
2022/05/03 00:34:33;;;;;;;;;;;;;;;;;;5095257;28;19923;-69
2022/05/03 00:36:59;;;;;;;;;;;;;;;;;;5094939;28;19912;-69
2022/05/03 00:39:25;;;;;;;;;;;;;;;;;;5095214;28;19908;-69
2022/05/03 00:41:51;;;;;;;;;;;;;;;;;;5095244;28;19908;-69
2022/05/03 00:47:01;;;;;;;;;;;;;;;;;;5094759;28;19914;-68
2022/05/03 00:49:27;;;;;;;;;;;;;;;;;;5094999;28;19915;-68
2022/05/03 00:51:53;;;;;;;;;;;;;;;;;;5095035;28;19908;-68
2022/05/03 00:54:19;;;;;;;;;;;;;;;;;;5094518;28;20356;-69
2022/05/03 00:56:45;;;;;;;;;;;;;;;;;;5094968;28;20003;-69
2022/05/03 00:59:12;;;;;;;;;;;;;;;;;;5094909;28;19916;-69
2022/05/03 01:01:38;;;;;;;;;;;;;;;;;;5094444;28;20002;-68
2022/05/03 01:04:04;;;;;;;;;;;;;;;;;;5094952;28;19987;-69
2022/05/03 01:06:30;;;;;;;;;;;;;;;;;;5094705;28;19938;-69
2022/05/03 01:08:56;;;;;;;;;;;;;;;;;;5094374;28;19914;-69
2022/05/03 01:11:22;;;;;;;;;;;;;;;;;;5076456;28;20387;-68
2022/05/03 01:13:48;;;;;;;;;;;;;;;;;;5094405;28;19920;-68
2022/05/03 01:16:16;;;;;;;;;;;;;;;;;;5094335;28;19945;-68
2022/05/03 01:18:42;;;;;;;;;;;;;;;;;;5095095;28;20255;-68
2022/05/03 01:21:08;;;;;;;;;;;;;;;;;;5076202;28;20002;-68
2022/05/03 01:23:34;;;;;;;;;;;;;;;;;;5094049;28;20321;-68
2022/05/03 01:26:00;;;;;;;;;;;;;;;;;;5094371;28;19915;-68
2022/05/03 01:28:26;;;;;;;;;;;;;;;;;;5093941;28;19912;-68
2022/05/03 01:30:52;;;;;;;;;;;;;;;;;;5094822;28;19934;-68
2022/05/03 01:33:18;;;;;;;;;;;;;;;;;;5094455;28;19908;-68
2022/05/03 01:35:44;;;;;;;;;;;;;;;;;;5093892;28;19908;-69
2022/05/03 01:38:10;;;;;;;;;;;;;;;;;;5075984;28;19917;-68
2022/05/03 01:40:36;;;;;;;;;;;;;;;;;;5094458;28;19908;-68
2022/05/03 01:43:02;;;;;;;;;;;;;;;;;;5094103;28;19934;-68
2022/05/03 01:45:28;;;;;;;;;;;;;;;;;;5094064;28;20288;-68
2022/05/03 01:47:56;;;;;;;;;;;;;;;;;;5094037;28;19908;-68
2022/05/03 01:50:22;;;;;;;;;;;;;;;;;;5093442;28;19908;-68
2022/05/03 01:52:48;;;;;;;;;;;;;;;;;;5093969;28;20253;-68
2022/05/03 01:55:14;;;;;;;;;;;;;;;;;;5094411;28;19920;-68
2022/05/03 01:57:40;;;;;;;;;;;;;;;;;;5093583;28;19908;-68
2022/05/03 02:00:06;;;;;;;;;;;;;;;;;;5093904;28;19909;-68
2022/05/03 02:02:32;;;;;;;;;;;;;;;;;;5093836;28;19908;-68
2022/05/03 02:04:58;;;;;;;;;;;;;;;;;;5093571;28;19908;-68
2022/05/03 02:07:25;;;;;;;;;;;;;;;;;;5093795;28;20364;-68
2022/05/03 02:09:51;;;;;;;;;;;;;;;;;;5094036;28;19908;-68
2022/05/03 02:12:17;;;;;;;;;;;;;;;;;;5093301;28;20409;-68
2022/05/03 02:14:46;;;;;;;;;;;;;;;;;;5093529;28;19940;-68
2022/05/03 02:17:12;;;;;;;;;;;;;;;;;;5093868;28;19915;-68
2022/05/03 02:19:38;;;;;;;;;;;;;;;;;;5093337;28;19908;-68
2022/05/03 02:22:04;;;;;;;;;;;;;;;;;;5093738;28;19951;-68
2022/05/03 02:24:30;;;;;;;;;;;;;;;;;;5093658;28;19953;-68
2022/05/03 02:26:56;;;;;;;;;;;;;;;;;;5093266;28;20275;-68
2022/05/03 02:29:22;;;;;;;;;;;;;;;;;;5093677;28;19912;-68
2022/05/03 02:31:49;;;;;;;;;;;;;;;;;;5093145;28;20391;-68
2022/05/03 02:34:15;;;;;;;;;;;;;;;;;;5093636;28;19916;-68
2022/05/03 02:36:41;;;;;;;;;;;;;;;;;;5093615;28;19931;-68
2022/05/03 02:39:07;;;;;;;;;;;;;;;;;;5075010;28;19939;-69
2022/05/03 02:41:33;;;;;;;;;;;;;;;;;;5075368;28;19940;-68
2022/05/03 02:43:59;;;;;;;;;;;;;;;;;;5093479;28;20007;-68
2022/05/03 02:46:25;;;;;;;;;;;;;;;;;;5093046;28;19936;-68
2022/05/03 02:48:51;;;;;;;;;;;;;;;;;;5093503;28;20421;-68
2022/05/03 02:51:17;;;;;;;;;;;;;;;;;;5075348;28;19915;-68
2022/05/03 02:53:46;;;;;;;;;;;;;;;;;;5093042;28;19912;-68
2022/05/03 02:56:12;;;;;;;;;;;;;;;;;;5093369;28;19912;-68
2022/05/03 02:58:38;;;;;;;;;;;;;;;;;;5093837;28;19908;-68
2022/05/03 03:03:49;;;;;;;;;;;;;;;;;;5097227;28;19919;-68
2022/05/03 03:06:15;;;;;;;;;;;;;;;;;;5097065;28;19908;-68
2022/05/03 03:08:41;;;;;;;;;;;;;;;;;;5096707;28;19908;-68
2022/05/03 03:11:07;;;;;;;;;;;;;;;;;;5097300;28;19961;-68
2022/05/03 03:13:33;;;;;;;;;;;;;;;;;;5096682;28;20472;-68
2022/05/03 03:15:59;;;;;;;;;;;;;;;;;;5096693;28;20020;-68
2022/05/03 03:18:25;;;;;;;;;;;;;;;;;;5096860;28;20311;-68
2022/05/03 03:20:51;;;;;;;;;;;;;;;;;;5096809;28;19916;-68
2022/05/03 03:23:18;;;;;;;;;;;;;;;;;;5096414;28;19908;-68
2022/05/03 03:25:44;;;;;;;;;;;;;;;;;;5078539;28;19908;-68
2022/05/03 03:28:10;;;;;;;;;;;;;;;;;;5096860;28;19915;-68
2022/05/03 03:30:36;;;;;;;;;;;;;;;;;;5096713;28;20246;-68
2022/05/03 03:33:02;;;;;;;;;;;;;;;;;;5096751;28;19915;-68
2022/05/03 03:35:28;;;;;;;;;;;;;;;;;;5096075;28;19920;-69
2022/05/03 03:37:57;;;;;;;;;;;;;;;;;;5096547;28;19999;-69
2022/05/03 03:40:23;;;;;;;;;;;;;;;;;;5096974;28;20414;-69
2022/05/03 03:42:49;;;;;;;;;;;;;;;;;;5077998;28;19912;-68
2022/05/03 03:45:15;;;;;;;;;;;;;;;;;;5078209;28;19915;-68
2022/05/03 03:47:41;;;;;;;;;;;;;;;;;;5096555;28;19908;-68
2022/05/03 03:50:07;;;;;;;;;;;;;;;;;;5096173;28;19995;-69
2022/05/03 03:52:34;;;;;;;;;;;;;;;;;;5096708;28;19919;-68
2022/05/03 03:55:00;;;;;;;;;;;;;;;;;;5096434;28;19923;-69
2022/05/03 03:57:26;;;;;;;;;;;;;;;;;;5095700;28;19912;-68
2022/05/03 03:59:52;;;;;;;;;;;;;;;;;;5096204;28;20304;-68
2022/05/03 04:02:19;;;;;;;;;;;;;;;;;;5096038;28;19991;-67
2022/05/03 04:04:45;;;;;;;;;;;;;;;;;;5077454;28;19909;-68
2022/05/03 04:07:11;;;;;;;;;;;;;;;;;;5096107;28;19953;-69
2022/05/03 04:09:37;;;;;;;;;;;;;;;;;;5077958;28;19994;-68
2022/05/03 04:12:03;;;;;;;;;;;;;;;;;;5095586;28;19915;-69
2022/05/03 04:14:29;;;;;;;;;;;;;;;;;;5095864;28;19924;-73
2022/05/03 04:16:55;;;;;;;;;;;;;;;;;;5096382;28;20289;-72
2022/05/03 04:19:21;;;;;;;;;;;;;;;;;;5077324;28;20372;-72
2022/05/03 04:21:47;;;;;;;;;;;;;;;;;;5096217;28;19947;-72
2022/05/03 04:24:13;;;;;;;;;;;;;;;;;;5095650;28;19908;-73
2022/05/03 04:26:39;;;;;;;;;;;;;;;;;;5077483;28;20356;-73
2022/05/03 04:29:05;;;;;;;;;;;;;;;;;;5096038;28;19908;-73
2022/05/03 04:31:32;;;;;;;;;;;;;;;;;;5095235;28;19908;-72
2022/05/03 04:33:58;;;;;;;;;;;;;;;;;;5095720;28;19912;-72
2022/05/03 04:36:27;;;;;;;;;;;;;;;;;;5077343;28;19916;-71
2022/05/03 04:38:53;;;;;;;;;;;;;;;;;;5076827;28;19908;-72
2022/05/03 04:41:19;;;;;;;;;;;;;;;;;;5095536;28;19912;-72
2022/05/03 04:43:45;;;;;;;;;;;;;;;;;;5095371;28;19908;-71
2022/05/03 04:46:11;;;;;;;;;;;;;;;;;;5094905;28;19908;-71
2022/05/03 04:48:37;;;;;;;;;;;;;;;;;;5095267;28;19908;-72
2022/05/03 04:51:03;;;;;;;;;;;;;;;;;;5095429;28;19961;-72
2022/05/03 04:53:29;;;;;;;;;;;;;;;;;;5094700;28;20326;-70
2022/05/03 04:55:55;;;;;;;;;;;;;;;;;;5095529;28;19912;-72
2022/05/03 04:58:21;;;;;;;;;;;;;;;;;;5095015;28;19912;-72
2022/05/03 05:00:47;;;;;;;;;;;;;;;;;;5094648;28;19961;-72
2022/05/03 05:03:13;;;;;;;;;;;;;;;;;;5095006;28;19908;-72
2022/05/03 05:05:39;;;;;;;;;;;;;;;;;;5094947;28;19912;-70
2022/05/03 05:08:05;;;;;;;;;;;;;;;;;;5094429;28;19915;-71
2022/05/03 05:10:32;;;;;;;;;;;;;;;;;;5094823;28;20371;-70
2022/05/03 05:12:58;;;;;;;;;;;;;;;;;;5094799;28;19908;-68
2022/05/03 05:15:24;;;;;;;;;;;;;;;;;;5075038;28;20055;-67
2022/05/03 05:17:50;;;;;;;;;;;;;;;;;;5071850;28;20399;-67
2022/05/03 05:20:17;;;;;;;;;;;;;;;;;;5088442;28;19908;-67
2022/05/03 05:22:43;;;;;;;;;;;;;;;;;;5073013;28;20391;-69
2022/05/03 05:25:09;;;;;;;;;;;;;;;;;;5088902;28;19916;-70
2022/05/03 05:27:35;;;;;;;;;;;;;;;;;;5089681;28;19937;-67
2022/05/03 05:30:01;;;;;;;;;;;;;;;;;;5086349;28;19912;-68
2022/05/03 05:32:32;;;;;;;;;;;;;;;;;;5063541;28;19912;-70
2022/05/03 05:34:58;;;;;;;;;;;;;;;;;;5071389;28;19923;-69
2022/05/03 05:37:24;;;;;;;;;;;;;;;;;;5087644;28;19919;-67
2022/05/03 05:39:50;;;;;;;;;;;;;;;;;;5090892;28;19909;-66
2022/05/03 05:42:16;;;;;;;;;;;;;;;;;;5068282;28;19908;-66
2022/05/03 05:44:42;;;;;;;;;;;;;;;;;;5087817;28;20021;-67
2022/05/03 05:47:08;;;;;;;;;;;;;;;;;;5085400;28;19913;-67
2022/05/03 05:49:34;;;;;;;;;;;;;;;;;;5084376;28;19923;-68
2022/05/03 05:54:44;;;;;;;;;;;;;;;;;;5089984;28;20070;-69
2022/05/03 05:57:10;;;;;;;;;;;;;;;;;;5089895;28;19998;-69
2022/05/03 05:59:36;;;;;;;;;;;;;;;;;;5066787;28;20030;-68
2022/05/03 06:02:02;;;;;;;;;;;;;;;;;;5069345;28;19908;-67
2022/05/03 06:04:28;;;;;;;;;;;;;;;;;;5071310;28;20007;-65
2022/05/03 06:06:55;;;;;;;;;;;;;;;;;;5088060;28;19912;-66
2022/05/03 06:09:21;;;;;;;;;;;;;;;;;;5086645;28;20193;-66
2022/05/03 06:11:47;;;;;;;;;;;;;;;;;;5071063;28;19908;-70
2022/05/03 06:14:13;;;;;;;;;;;;;;;;;;5073360;28;19946;-68
2022/05/03 06:16:39;;;;;;;;;;;;;;;;;;5073271;28;19935;-69
2022/05/03 06:19:05;;;;;;;;;;;;;;;;;;5093766;28;20007;-68
2022/05/03 06:21:31;;;;;;;;;;;;;;;;;;5092493;28;20400;-70
2022/05/03 06:23:57;;;;;;;;;;;;;;;;;;5088806;28;19915;-67
2022/05/03 06:26:23;;;;;;;;;;;;;;;;;;5092059;28;19916;-68
2022/05/03 06:28:49;;;;;;;;;;;;;;;;;;5091344;28;20004;-69
2022/05/03 06:31:20;;;;;;;;;;;;;;;;;;5094734;28;19915;-68
2022/05/03 06:33:46;;;;;;;;;;;;;;;;;;5090867;28;20391;-68
2022/05/03 06:36:15;;;;;;;;;;;;;;;;;;5092035;28;19916;-68
2022/05/03 06:38:41;;;;;;;;;;;;;;;;;;5098974;28;20298;-66
2022/05/03 06:41:08;;;;;;;;;;;;;;;;;;5079986;28;19913;-68
2022/05/03 06:43:34;;;;;;;;;;;;;;;;;;5091476;28;19913;-68
2022/05/03 06:46:01;;;;;;;;;;;;;;;;;;5099211;28;19908;-69
2022/05/03 06:48:27;;;;;;;;;;;;;;;;;;5091668;28;19919;-69
2022/05/03 06:50:53;;;;;;;;;;;;;;;;;;5091175;28;19908;-67
2022/05/03 06:54:35;;;;;;;;;;;;;;;;;;5127802;27;19912;-67
2022/05/03 06:57:01;;;;;;;;;;;;;;;;;;5126212;28;19915;-68
2022/05/03 06:59:27;;;;;;;;;;;;;;;;;;5121342;28;20292;-68
2022/05/03 07:01:53;;;;;;;;;;;;;;;;;;5121400;28;20424;-69
2022/05/03 07:04:19;;;;;;;;;;;;;;;;;;5127430;28;20386;-69
2022/05/03 07:06:45;;;;;;;;;;;;;;;;;;5127127;28;20322;-68
2022/05/03 07:10:10;;;;;;;;;;;;;;;;;;5088463;27;19978;-68
2022/05/03 07:13:00;;;;;;;;;;;;;;;;;;5099449;27;19925;-69
2022/05/03 07:15:27;;;;;;;;;;;;;;;;;;5063285;28;19960;-69
2022/05/03 07:24:19;;;;;;;;;;;;;;;;;;5079155;28;19978;-66
2022/05/03 07:29:01;;;;;;;;;;;;;;;;;;5093012;27;20388;-67
2022/05/03 07:35:36;;;;;;;;;;;;;;;;;;5094378;27;20644;-66
2022/05/03 07:38:41;;;;;;;;;;;;;;;;;;5088551;27;19916;-70
2022/05/03 07:41:07;;;;;;;;;;;;;;;;;;5086883;28;20004;-66
2022/05/03 07:45:15;;;;;;;;;;;;;;;;;;5090907;27;19923;-66
2022/05/03 07:47:41;;;;;;;;;;;;;;;;;;5087775;28;19927;-66
2022/05/03 07:53:28;;;;;;;;;;;;;;;;;;5085648;28;20359;-66
2022/05/03 08:02:43;;;;;;;;;;;;;;;;;;5079851;27;19974;-69
2022/05/03 08:06:56;;;;;;;;;;;;;;;;;;5088912;27;19920;-67
2022/05/03 08:09:22;;;;;;;;;;;;;;;;;;5087070;28;19912;-66
2022/05/03 08:12:15;;;;;;;;;;;;;;;;;;5088698;27;19917;-67
2022/05/03 08:18:58;;;;;;;;;;;;;;;;;;5086269;27;19916;-66
2022/05/03 08:24:55;;;;;;;;;;;;;;;;;;5119669;27;19915;-67
2022/05/03 08:27:21;;;;;;;;;;;;;;;;;;5127628;28;19943;-66
2022/05/03 08:32:01;;;;;;;;;;;;;;;;;;5088844;28;19922;-66
2022/05/03 08:34:27;;;;;;;;;;;;;;;;;;5088380;28;19913;-67
2022/05/03 08:44:18;;;;;;;;;;;;;;;;;;5107080;27;19926;-66
2022/05/03 08:49:25;;;;;;;;;;;;;;;;;;5128327;27;19922;-67
2022/05/03 08:53:42;;;;;;;;;;;;;;;;;;5088050;27;20316;-67
2022/05/03 09:00:42;;;;;;;;;;;;;;;;;;5150905;27;19918;-68
2022/05/03 09:03:09;;;;;;;;;;;;;;;;;;5150073;27;19958;-67
2022/05/03 09:06:18;;;;;;;;;;;;;;;;;;5124996;27;19912;-67
2022/05/03 09:13:45;;;;;;;;;;;;;;;;;;5128518;27;19926;-68
2022/05/03 09:16:11;;;;;;;;;;;;;;;;;;5113692;27;20340;-68
2022/05/03 09:18:37;;;;;;;;;;;;;;;;;;5121039;28;20038;-67
2022/05/03 09:24:25;;;;;;;;;;;;;;;;;;5121275;27;19931;-66
2022/05/03 09:26:51;;;;;;;;;;;;;;;;;;5117725;28;19912;-65
2022/05/03 09:29:17;;;;;;;;;;;;;;;;;;5106826;28;19913;-65
2022/05/03 09:31:43;;;;;;;;;;;;;;;;;;5119405;28;19915;-65
2022/05/03 09:34:53;;;;;;;;;;;;;;;;;;5158003;27;19966;-64
2022/05/03 09:39:17;;;;;;;;;;;;;;;;;;5117040;27;19920;-64
2022/05/03 09:43:53;;;;;;;;;;;;;;;;;;5119450;27;19926;-65
2022/05/03 09:46:19;;;;;;;;;;;;;;;;;;5128548;28;19946;-67
2022/05/03 09:51:10;;;;;;;;;;;;;;;;;;5082817;28;19919;-65
2022/05/03 09:54:43;;;;;;;;;;;;;;;;;;5168507;27;19915;-66
2022/05/03 09:57:09;;;;;;;;;;;;;;;;;;5161077;27;19911;-66
2022/05/03 10:01:54;;;;;;;;;;;;;;;;;;5087250;27;19931;-67
2022/05/03 10:04:20;;;;;;;;;;;;;;;;;;5087905;28;19935;-67
2022/05/03 10:06:46;;;;;;;;;;;;;;;;;;5087493;28;20368;-67
2022/05/03 10:09:12;;;;;;;;;;;;;;;;;;5088037;28;20035;-67
2022/05/03 10:11:39;;;;;;;;;;;;;;;;;;5086832;28;19913;-67
2022/05/03 10:24:06;;;;;;;;;;;;;;;;;;5089219;28;20266;-68
2022/05/03 10:26:32;;;;;;;;;;;;;;;;;;5088091;28;20411;-67
2022/05/03 10:28:59;;;;;;;;;;;;;;;;;;5089158;28;19909;-65
2022/05/03 10:32:40;;;;;;;;;;;;;;;;;;5127862;27;19916;-67
2022/05/03 10:35:07;;;;;;;;;;;;;;;;;;5125430;27;19947;-67
2022/05/03 10:38:51;;;;;;;;;;;;;;;;;;5088918;27;19917;-66
2022/05/03 10:41:17;;;;;;;;;;;;;;;;;;5088135;28;19999;-66
2022/05/03 10:44:24;;;;;;;;;;;;;;;;;;5088560;28;19922;-67
2022/05/03 10:47:44;;;;;;;;;;;;;;;;;;5125683;27;19926;-67
2022/05/03 10:50:13;;;;;;;;;;;;;;;;;;5124244;28;19919;-66
2022/05/03 10:52:38;;;;;;;;;;;;;;;;;;5122199;28;19988;-65
2022/05/03 10:55:05;;;;;;;;;;;;;;;;;;5129621;27;19975;-64
2022/05/03 10:57:31;;;;;;;;;;;;;;;;;;5128704;27;20722;-66
2022/05/03 11:07:35;;;;;;;;;;;;;;;;;;5127472;27;19915;-65
2022/05/03 11:10:01;;;;;;;;;;;;;;;;;;5130518;27;20018;-67
2022/05/03 11:15:06;;;;;;;;;;;;;;;;;;5135229;27;19915;-67
2022/05/03 11:17:32;;;;;;;;;;;;;;;;;;5125013;28;19912;-67
2022/05/03 11:19:59;;;;;;;;;;;;;;;;;;5126747;28;19955;-69
2022/05/03 11:22:25;;;;;;;;;;;;;;;;;;5128593;28;20261;-66
2022/05/03 11:24:51;;;;;;;;;;;;;;;;;;5128324;28;19964;-65
2022/05/03 11:31:29;;;;;;;;;;;;;;;;;;5088359;27;19942;-67
2022/05/03 11:34:59;;;;;;;;;;;;;;;;;;5136358;27;20014;-67
2022/05/03 11:37:25;;;;;;;;;;;;;;;;;;5129343;28;20314;-67
2022/05/03 11:39:52;;;;;;;;;;;;;;;;;;5129292;28;19915;-68
2022/05/03 11:42:18;;;;;;;;;;;;;;;;;;5128208;28;20371;-66
2022/05/03 11:44:44;;;;;;;;;;;;;;;;;;5128652;28;20050;-65
2022/05/03 11:47:11;;;;;;;;;;;;;;;;;;5124754;28;19928;-65
2022/05/03 11:49:37;;;;;;;;;;;;;;;;;;5116498;28;19912;-65
2022/05/03 11:57:57;;;;;;;;;;;;;;;;;;5122551;28;19957;-69
2022/05/03 12:00:23;;;;;;;;;;;;;;;;;;5129746;28;20344;-69
2022/05/03 12:02:50;;;;;;;;;;;;;;;;;;5110534;28;19912;-67
2022/05/03 12:05:18;;;;;;;;;;;;;;;;;;5129984;28;19918;-66
2022/05/03 12:08:42;;;;;;;;;;;;;;;;;;5091904;27;20300;-65
2022/05/03 12:13:45;;;;;;;;;;;;;;;;;;5088472;27;19916;-65
2022/05/03 12:16:15;;;;;;;;;;;;;;;;;;5089051;28;20019;-65
2022/05/03 12:18:41;;;;;;;;;;;;;;;;;;5088660;28;19962;-66
2022/05/03 12:21:07;;;;;;;;;;;;;;;;;;5087131;28;19909;-66
2022/05/03 12:24:56;;;;;;;;;;;;;;;;;;5088544;27;19922;-67
2022/05/03 12:27:22;;;;;;;;;;;;;;;;;;5086659;28;20292;-67
2022/05/03 12:33:52;;;;;;;;;;;;;;;;;;5088271;28;19923;-68
2022/05/03 12:37:23;;;;;;;;;;;;;;;;;;5088664;27;19927;-68
2022/05/03 12:39:49;;;;;;;;;;;;;;;;;;5089060;28;19947;-67
2022/05/03 12:42:15;;;;;;;;;;;;;;;;;;5089439;28;19924;-70
2022/05/03 12:44:41;;;;;;;;;;;;;;;;;;5087207;28;19908;-66
2022/05/03 12:48:23;;;;;;;;;;;;;;;;;;5089432;28;19916;-67
2022/05/03 12:50:49;;;;;;;;;;;;;;;;;;5086572;28;19912;-66
2022/05/03 12:53:15;;;;;;;;;;;;;;;;;;5089582;28;19915;-67
2022/05/03 13:01:17;;;;;;;;;;;;;;;;;;5089561;27;19996;-66
2022/05/03 13:06:07;;;;;;;;;;;;;;;;;;5089351;27;20392;-66
2022/05/03 13:08:33;;;;;;;;;;;;;;;;;;5089162;28;20011;-65
2022/05/03 13:11:31;;;;;;;;;;;;;;;;;;5127295;27;19911;-68
2022/05/03 13:14:15;;;;;;;;;;;;;;;;;;5090048;27;19916;-67
2022/05/03 13:21:35;;;;;;;;;;;;;;;;;;5089539;27;19912;-66
2022/05/03 13:24:01;;;;;;;;;;;;;;;;;;5091234;28;19919;-68
2022/05/03 13:26:28;;;;;;;;;;;;;;;;;;5090720;28;20286;-67
2022/05/03 13:28:54;;;;;;;;;;;;;;;;;;5091194;28;20368;-67
2022/05/03 13:32:19;;;;;;;;;;;;;;;;;;5091095;27;19923;-66
2022/05/03 13:34:45;;;;;;;;;;;;;;;;;;5090813;28;19958;-67
2022/05/03 13:40:46;;;;;;;;;;;;;;;;;;5091064;28;19920;-67
2022/05/03 13:43:12;;;;;;;;;;;;;;;;;;5091263;28;20437;-68
2022/05/03 13:45:39;;;;;;;;;;;;;;;;;;5091432;28;19909;-68
2022/05/03 13:48:05;;;;;;;;;;;;;;;;;;5090845;28;20272;-68
2022/05/03 13:50:31;;;;;;;;;;;;;;;;;;5091623;28;19909;-67
2022/05/03 13:55:02;;;;;;;;;;;;;;;;;;5091256;27;19917;-68
2022/05/03 13:57:28;;;;;;;;;;;;;;;;;;5091425;28;19912;-67
2022/05/03 13:59:55;;;;;;;;;;;;;;;;;;5091271;28;19948;-67
2022/05/03 14:08:34;;;;;;;;;;;;;;;;;;5093843;27;2260493;-68
2022/05/03 14:12:38;;;;;;;;;;;;;;;;;;5091457;27;19916;-68
2022/05/03 14:15:04;;;;;;;;;;;;;;;;;;5091476;28;19916;-67
2022/05/03 14:17:30;;;;;;;;;;;;;;;;;;5091340;28;19936;-66
2022/05/03 14:19:56;;;;;;;;;;;;;;;;;;5091261;28;19962;-66
2022/05/03 14:22:22;;;;;;;;;;;;;;;;;;5090723;28;19908;-66
2022/05/03 14:27:47;;;;;;;;;;;;;;;;;;5091740;27;19912;-68
2022/05/03 14:30:13;;;;;;;;;;;;;;;;;;5089630;28;19935;-67
2022/05/03 14:38:56;;;;;;;;;;;;;;;;;;5092105;28;20361;-68
2022/05/03 14:41:22;;;;;;;;;;;;;;;;;;5091260;28;20000;-68
2022/05/03 14:43:48;;;;;;;;;;;;;;;;;;5090927;28;20299;-66
2022/05/03 14:48:46;;;;;;;;;;;;;;;;;;5091647;27;19916;-68
2022/05/03 14:53:12;;;;;;;;;;;;;;;;;;5071137;28;19925;-69
2022/05/03 14:55:39;;;;;;;;;;;;;;;;;;5071069;28;20320;-67
2022/05/03 15:06:08;;;;;;;;;;;;;;;;;;5091122;27;19916;-68
2022/05/03 15:08:59;;;;;;;;;;;;;;;;;;5092121;27;19917;-68
2022/05/03 15:11:25;;;;;;;;;;;;;;;;;;5090933;28;19966;-68
2022/05/03 15:16:28;;;;;;;;;;;;;;;;;;5091597;28;19916;-68
2022/05/03 15:18:54;;;;;;;;;;;;;;;;;;5090796;28;19920;-66
2022/05/03 15:25:18;;;;;;;;;;;;;;;;;;5132357;27;19995;-68
2022/05/03 15:29:06;;;;;;;;;;;;;;;;;;5091465;27;19913;-68
2022/05/03 15:31:32;;;;;;;;;;;;;;;;;;5091427;28;19958;-69
2022/05/03 15:36:23;;;;;;;;;;;;;;;;;;5092082;27;19917;-68
2022/05/03 15:38:49;;;;;;;;;;;;;;;;;;5090079;28;19923;-68
2022/05/03 15:45:33;;;;;;;;;;;;;;;;;;5091983;27;20385;-68
2022/05/03 15:53:31;;;;;;;;;;;;;;;;;;5091752;28;19923;-68
2022/05/03 15:55:57;;;;;;;;;;;;;;;;;;5091308;28;19978;-68
2022/05/03 15:58:23;;;;;;;;;;;;;;;;;;5091574;28;19912;-67
2022/05/03 16:03:01;;;;;;;;;;;;;;;;;;5132691;27;20006;-68
2022/05/03 16:05:27;;;;;;;;;;;;;;;;;;5132206;28;19911;-68
2022/05/03 16:10:04;;;;;;;;;;;;;;;;;;5091261;27;19919;-68
2022/05/03 16:13:13;;;;;;;;;;;;;;;;;;5091739;27;19912;-68
2022/05/03 16:19:03;;;;;;;;;;;;;;;;;;5174043;27;20009;-68
2022/05/03 16:23:14;;;;;;;;;;;;;;;;;;5091047;27;19939;-67
2022/05/03 16:27:26;;;;;;;;;;;;;;;;;;5091893;28;20280;-68
2022/05/03 16:29:52;;;;;;;;;;;;;;;;;;5091140;28;20457;-68
2022/05/03 16:32:19;;;;;;;;;;;;;;;;;;5091372;28;19978;-68
2022/05/03 16:34:45;;;;;;;;;;;;;;;;;;5091269;28;20086;-69
2022/05/03 16:45:33;;;;;;;;;;;;;;;;;;5092204;27;19916;-68
2022/05/03 16:48:00;;;;;;;;;;;;;;;;;;5091871;28;19943;-66
2022/05/03 16:50:26;;;;;;;;;;;;;;;;;;5090888;28;19908;-68
2022/05/03 16:52:54;;;;;;;;;;;;;;;;;;5091209;28;20053;-67
2022/05/03 16:55:46;;;;;;;;;;;;;;;;;;5153039;27;20002;-68
2022/05/03 17:02:15;;;;;;;;;;;;;;;;;;5091369;28;19912;-68
2022/05/03 17:04:41;;;;;;;;;;;;;;;;;;5090878;28;19935;-68
2022/05/03 17:07:07;;;;;;;;;;;;;;;;;;5091194;28;20361;-67
2022/05/03 17:09:33;;;;;;;;;;;;;;;;;;5091182;28;19954;-67
2022/05/03 17:11:59;;;;;;;;;;;;;;;;;;5090799;28;19908;-68
2022/05/03 17:15:23;;;;;;;;;;;;;;;;;;5152927;27;19918;-68
2022/05/03 17:22:26;;;;;;;;;;;;;;;;;;5091685;27;19916;-68
2022/05/03 17:24:52;;;;;;;;;;;;;;;;;;5091770;28;19920;-67
2022/05/03 17:27:19;;;;;;;;;;;;;;;;;;5090810;28;19954;-68
2022/05/03 17:29:46;;;;;;;;;;;;;;;;;;5089712;28;19908;-68
2022/05/03 17:34:21;;;;;;;;;;;;;;;;;;5090585;27;19923;-68
2022/05/03 17:39:53;;;;;;;;;;;;;;;;;;5091370;28;19918;-68
2022/05/03 17:42:19;;;;;;;;;;;;;;;;;;5091305;28;19913;-68
2022/05/03 17:46:31;;;;;;;;;;;;;;;;;;5091438;28;19923;-68
2022/05/03 17:48:57;;;;;;;;;;;;;;;;;;5091318;28;19947;-68
2022/05/03 17:53:52;;;;;;;;;;;;;;;;;;5091266;28;19912;-68
2022/05/03 17:54:09;;;;;;;;;;;;;;;;;;5090802;28;19913;-68
2022/05/03 17:56:35;;;;;;;;;;;;;;;;;;5091076;28;19923;-68
2022/05/03 17:59:01;;;;;;;;;;;;;;;;;;5089863;28;19912;-68
2022/05/03 18:01:37;;;;;;;;;;;;;;;;;;5091183;27;19922;-65
2022/05/03 18:05:18;;;;;;;;;;;;;;;;;;5092186;27;19917;-68
2022/05/03 18:07:47;;;;;;;;;;;;;;;;;;5090924;28;19919;-68
2022/05/03 18:10:13;;;;;;;;;;;;;;;;;;5091252;28;19908;-68
2022/05/03 18:13:18;;;;;;;;;;;;;;;;;;5092128;27;19923;-67
2022/05/03 18:20:22;;;;;;;;;;;;;;;;;;5111920;27;19916;-68
2022/05/03 18:22:48;;;;;;;;;;;;;;;;;;5111201;28;20348;-68
2022/05/03 18:26:16;;;;;;;;;;;;;;;;;;5091559;28;19923;-68
2022/05/03 18:29:36;;;;;;;;;;;;;;;;;;5090999;28;19923;-67
2022/05/03 18:32:03;;;;;;;;;;;;;;;;;;5091313;28;20325;-67
2022/05/03 18:34:30;;;;;;;;;;;;;;;;;;5091537;28;19995;-67
2022/05/03 18:36:56;;;;;;;;;;;;;;;;;;5091053;28;20277;-67
2022/05/03 18:39:22;;;;;;;;;;;;;;;;;;5091060;28;19915;-67
2022/05/03 18:41:48;;;;;;;;;;;;;;;;;;5091028;28;19939;-68
2022/05/03 18:44:40;;;;;;;;;;;;;;;;;;5090977;27;19916;-68
2022/05/03 18:47:06;;;;;;;;;;;;;;;;;;5091294;28;20339;-68
2022/05/03 18:49:32;;;;;;;;;;;;;;;;;;5090971;28;19908;-68
2022/05/03 18:51:58;;;;;;;;;;;;;;;;;;5091338;28;19908;-68
2022/05/03 18:57:39;;;;;;;;;;;;;;;;;;5090837;27;19916;-67
2022/05/03 19:00:05;;;;;;;;;;;;;;;;;;5091330;28;19920;-66
2022/05/03 19:02:32;;;;;;;;;;;;;;;;;;5091281;28;19912;-66
2022/05/03 19:06:35;;;;;;;;;;;;;;;;;;5091575;27;19912;-66
2022/05/03 19:09:01;;;;;;;;;;;;;;;;;;5091317;28;19948;-67
2022/05/03 19:11:27;;;;;;;;;;;;;;;;;;5090946;28;19916;-67
2022/05/03 19:13:53;;;;;;;;;;;;;;;;;;5091243;28;19912;-66
2022/05/03 19:16:19;;;;;;;;;;;;;;;;;;5091175;28;19943;-67
2022/05/03 19:19:26;;;;;;;;;;;;;;;;;;5152577;27;20446;-67
2022/05/03 19:21:52;;;;;;;;;;;;;;;;;;5153214;27;19933;-68
2022/05/03 19:30:39;;;;;;;;;;;;;;;;;;5089662;27;20389;-68
2022/05/03 19:34:46;;;;;;;;;;;;;;;;;;5088956;27;19912;-69
2022/05/03 19:37:12;;;;;;;;;;;;;;;;;;5089256;28;19913;-68
2022/05/03 19:39:38;;;;;;;;;;;;;;;;;;5089585;28;19915;-68
2022/05/03 19:42:05;;;;;;;;;;;;;;;;;;5090209;28;19912;-68
2022/05/03 19:44:31;;;;;;;;;;;;;;;;;;5090119;28;19917;-68
2022/05/03 19:46:57;;;;;;;;;;;;;;;;;;5088930;28;19983;-68
2022/05/03 19:49:23;;;;;;;;;;;;;;;;;;5090910;28;19913;-68
2022/05/03 19:51:49;;;;;;;;;;;;;;;;;;5090946;28;19957;-68
2022/05/03 19:54:15;;;;;;;;;;;;;;;;;;5090473;28;19923;-68
2022/05/03 19:56:41;;;;;;;;;;;;;;;;;;5089563;28;19908;-67
2022/05/03 19:59:08;;;;;;;;;;;;;;;;;;5090918;28;20299;-67
2022/05/03 20:01:34;;;;;;;;;;;;;;;;;;5090618;28;19934;-67
2022/05/03 20:04:00;;;;;;;;;;;;;;;;;;5090856;28;19908;-67
2022/05/03 20:06:26;;;;;;;;;;;;;;;;;;5090806;28;19908;-67
2022/05/03 20:08:52;;;;;;;;;;;;;;;;;;5089127;28;19913;-67
2022/05/03 20:11:18;;;;;;;;;;;;;;;;;;5090557;28;19947;-67
2022/05/03 20:13:44;;;;;;;;;;;;;;;;;;5090698;28;20399;-68
2022/05/03 20:16:10;;;;;;;;;;;;;;;;;;5091059;28;19908;-68
2022/05/03 20:18:36;;;;;;;;;;;;;;;;;;5090494;28;20352;-68
2022/05/03 20:21:02;;;;;;;;;;;;;;;;;;5090050;28;19954;-68
2022/05/03 20:23:28;;;;;;;;;;;;;;;;;;5090392;28;19999;-67
2022/05/03 20:25:54;;;;;;;;;;;;;;;;;;5089123;28;19912;-68
2022/05/03 20:28:20;;;;;;;;;;;;;;;;;;5089984;28;19915;-68
2022/05/03 20:30:47;;;;;;;;;;;;;;;;;;5090332;28;20389;-68
2022/05/03 20:33:13;;;;;;;;;;;;;;;;;;5088742;28;19924;-68
2022/05/03 20:35:39;;;;;;;;;;;;;;;;;;5089839;28;19908;-67
2022/05/03 20:38:05;;;;;;;;;;;;;;;;;;5090454;28;19915;-67
2022/05/03 20:40:32;;;;;;;;;;;;;;;;;;5090060;28;19912;-67
2022/05/03 20:42:57;;;;;;;;;;;;;;;;;;5089629;28;19978;-67
2022/05/03 20:45:23;;;;;;;;;;;;;;;;;;5080331;28;19945;-67
2022/05/03 20:50:34;;;;;;;;;;;;;;;;;;5076103;28;19919;-67
2022/05/03 20:53:00;;;;;;;;;;;;;;;;;;5076309;28;19913;-67
2022/05/03 20:55:26;;;;;;;;;;;;;;;;;;5076549;28;20386;-68
2022/05/03 20:57:52;;;;;;;;;;;;;;;;;;5074740;28;19916;-67
2022/05/03 21:00:18;;;;;;;;;;;;;;;;;;5076287;28;19908;-68
2022/05/03 21:02:44;;;;;;;;;;;;;;;;;;5076309;28;19974;-67